createdAt,value
2018-12-06T00:00:51.948Z,9.80
2018-12-06T00:01:51.936Z,9.78
2018-12-06T00:02:51.928Z,9.77
2018-12-06T00:03:51.918Z,9.80
2018-12-06T00:04:51.919Z,9.77
2018-12-06T00:05:51.906Z,9.74
2018-12-06T00:06:51.897Z,9.73
2018-12-06T00:07:51.889Z,9.78
2018-12-06T00:08:51.877Z,9.81
2018-12-06T00:09:51.871Z,9.74
2018-12-06T00:10:51.859Z,9.74
2018-12-06T00:11:51.850Z,9.85
2018-12-06T00:12:51.848Z,9.80
2018-12-06T00:13:51.840Z,9.73
2018-12-06T00:14:51.825Z,9.78
2018-12-06T00:15:51.816Z,9.75
2018-12-06T00:16:51.813Z,9.74
2018-12-06T00:17:51.805Z,9.75
2018-12-06T00:18:51.795Z,9.80
2018-12-06T00:19:51.786Z,9.81
2018-12-06T00:20:51.775Z,9.80
2018-12-06T00:21:51.770Z,9.73
2018-12-06T00:22:51.757Z,9.85
2018-12-06T00:23:51.748Z,9.75
2018-12-06T00:24:51.744Z,9.73
2018-12-06T00:25:51.736Z,9.77
2018-12-06T00:26:51.727Z,9.74
2018-12-06T00:27:51.720Z,9.74
2018-12-06T00:28:51.706Z,9.75
2018-12-06T00:29:51.699Z,9.75
2018-12-06T00:30:51.694Z,9.74
2018-12-06T00:31:51.685Z,9.75
2018-12-06T00:32:51.672Z,9.74
2018-12-06T00:33:51.665Z,9.75
2018-12-06T00:34:51.655Z,9.74
2018-12-06T00:35:51.646Z,9.80
2018-12-06T00:36:51.644Z,9.75
2018-12-06T00:37:51.636Z,9.86
2018-12-06T00:38:51.629Z,9.74
2018-12-06T00:39:51.617Z,9.75
2018-12-06T00:40:51.605Z,9.74
2018-12-06T00:41:51.596Z,9.74
2018-12-06T00:42:51.587Z,9.74
2018-12-06T00:43:51.579Z,9.81
2018-12-06T00:44:51.575Z,9.78
2018-12-06T00:45:51.568Z,9.74
2018-12-06T00:46:51.554Z,9.80
2018-12-06T00:47:51.546Z,9.85
2018-12-06T00:48:51.541Z,9.78
2018-12-06T00:49:51.541Z,9.78
2018-12-06T00:50:51.526Z,9.80
2018-12-06T00:51:51.518Z,9.73
2018-12-06T00:52:51.505Z,9.71
2018-12-06T00:53:51.495Z,9.75
2018-12-06T00:54:51.486Z,9.73
2018-12-06T00:55:51.477Z,9.83
2018-12-06T00:56:51.475Z,9.75
2018-12-06T00:57:51.471Z,9.75
2018-12-06T00:58:51.458Z,9.71
2018-12-06T00:59:51.448Z,9.80
2018-12-06T01:00:51.436Z,9.78
2018-12-06T01:01:51.431Z,9.73
2018-12-06T01:02:51.423Z,9.80
2018-12-06T01:03:51.416Z,9.75
2018-12-06T01:04:51.403Z,9.77
2018-12-06T01:05:51.394Z,9.75
2018-12-06T01:06:51.386Z,9.78
2018-12-06T01:07:51.378Z,9.73
2018-12-06T01:08:51.374Z,9.77
2018-12-06T01:09:51.367Z,9.74
2018-12-06T01:10:51.359Z,9.77
2018-12-06T01:11:51.347Z,9.75
2018-12-06T01:12:51.335Z,9.80
2018-12-06T01:13:51.326Z,9.77
2018-12-06T01:14:51.317Z,9.71
2018-12-06T01:15:51.312Z,9.74
2018-12-06T01:16:51.307Z,9.77
2018-12-06T01:17:51.301Z,9.74
2018-12-06T01:18:51.283Z,9.71
2018-12-06T01:19:51.278Z,9.74
2018-12-06T01:20:51.271Z,9.78
2018-12-06T01:21:51.263Z,9.81
2018-12-06T01:22:51.255Z,9.75
2018-12-06T01:23:51.246Z,9.75
2018-12-06T01:24:51.234Z,9.67
2018-12-06T01:25:51.226Z,9.74
2018-12-06T01:26:51.216Z,9.78
2018-12-06T01:27:51.209Z,9.73
2018-12-06T01:28:51.206Z,9.71
2018-12-06T01:29:51.197Z,9.73
2018-12-06T01:30:51.188Z,9.73
2018-12-06T01:31:51.178Z,9.73
2018-12-06T01:32:51.166Z,9.73
2018-12-06T01:33:51.158Z,9.75
2018-12-06T01:34:51.152Z,9.75
2018-12-06T01:35:51.143Z,9.86
2018-12-06T01:36:51.131Z,9.81
2018-12-06T01:37:51.123Z,9.85
2018-12-06T01:38:51.114Z,9.78
2018-12-06T01:39:51.107Z,9.78
2018-12-06T01:40:51.106Z,9.83
2018-12-06T01:41:51.094Z,9.68
2018-12-06T01:42:51.080Z,9.77
2018-12-06T01:43:51.073Z,9.71
2018-12-06T01:44:51.067Z,9.73
2018-12-06T01:45:51.062Z,9.77
2018-12-06T01:46:51.052Z,9.74
2018-12-06T01:47:51.043Z,9.71
2018-12-06T01:48:51.031Z,9.81
2018-12-06T01:49:51.021Z,9.77
2018-12-06T01:50:51.017Z,9.71
2018-12-06T01:51:51.009Z,9.75
2018-12-06T01:52:50.997Z,9.77
2018-12-06T01:53:50.988Z,9.74
2018-12-06T01:54:50.978Z,9.78
2018-12-06T01:55:50.969Z,9.78
2018-12-06T01:56:50.966Z,9.80
2018-12-06T01:57:50.957Z,9.75
2018-12-06T01:58:50.949Z,9.77
2018-12-06T01:59:50.941Z,9.77
2018-12-06T02:00:50.927Z,9.74
2018-12-06T02:01:50.919Z,9.71
2018-12-06T02:02:50.910Z,9.80
2018-12-06T02:03:50.904Z,9.73
2018-12-06T02:04:50.900Z,9.75
2018-12-06T02:05:50.890Z,9.80
2018-12-06T02:06:50.878Z,9.73
2018-12-06T02:07:50.868Z,9.75
2018-12-06T02:08:50.864Z,9.78
2018-12-06T02:09:50.859Z,9.78
2018-12-06T02:10:50.847Z,9.73
2018-12-06T02:11:50.838Z,9.74
2018-12-06T02:12:50.826Z,9.80
2018-12-06T02:13:50.818Z,9.77
2018-12-06T02:14:50.809Z,9.75
2018-12-06T02:15:50.800Z,9.73
2018-12-06T02:16:50.844Z,9.73
2018-12-06T02:17:50.788Z,9.78
2018-12-06T02:18:50.780Z,9.74
2018-12-06T02:19:50.771Z,9.77
2018-12-06T02:20:50.760Z,9.83
2018-12-06T02:21:50.750Z,9.83
2018-12-06T02:22:50.747Z,9.70
2018-12-06T02:23:50.742Z,9.74
2018-12-06T02:24:50.726Z,9.74
2018-12-06T02:25:50.716Z,9.73
2018-12-06T02:26:50.723Z,9.77
2018-12-06T02:27:50.705Z,9.77
2018-12-06T02:28:50.694Z,9.62
2018-12-06T02:29:50.687Z,9.65
2018-12-06T02:30:50.743Z,9.67
2018-12-06T02:31:50.670Z,9.65
2018-12-06T02:32:50.657Z,9.67
2018-12-06T02:33:50.650Z,9.65
2018-12-06T02:34:50.641Z,9.60
2018-12-06T02:35:50.633Z,9.68
2018-12-06T02:36:50.636Z,9.68
2018-12-06T02:37:50.623Z,9.70
2018-12-06T02:38:50.607Z,9.65
2018-12-06T02:39:50.607Z,9.65
2018-12-06T02:40:50.595Z,9.58
2018-12-06T02:41:50.587Z,9.65
2018-12-06T02:42:50.577Z,9.68
2018-12-06T02:43:50.569Z,9.70
2018-12-06T02:44:50.555Z,9.70
2018-12-06T02:45:50.546Z,9.58
2018-12-06T02:46:50.538Z,9.60
2018-12-06T02:47:50.530Z,9.60
2018-12-06T02:48:50.529Z,9.62
2018-12-06T02:49:50.518Z,9.62
2018-12-06T02:50:50.508Z,9.60
2018-12-06T02:51:50.500Z,9.50
2018-12-06T02:52:50.487Z,9.55
2018-12-06T02:53:50.481Z,9.48
2018-12-06T02:54:50.476Z,9.53
2018-12-06T02:55:50.466Z,9.59
2018-12-06T02:56:50.453Z,9.60
2018-12-06T02:57:50.449Z,9.52
2018-12-06T02:58:50.436Z,9.48
2018-12-06T02:59:50.428Z,9.42
2018-12-06T03:00:50.424Z,9.49
2018-12-06T03:01:50.420Z,9.52
2018-12-06T03:02:50.408Z,9.52
2018-12-06T03:03:50.401Z,9.44
2018-12-06T03:04:50.386Z,9.49
2018-12-06T03:05:50.379Z,9.40
2018-12-06T03:06:50.368Z,9.44
2018-12-06T03:07:50.359Z,9.42
2018-12-06T03:08:50.355Z,9.41
2018-12-06T03:09:50.348Z,9.45
2018-12-06T03:10:50.333Z,9.42
2018-12-06T03:11:50.326Z,9.44
2018-12-06T03:12:50.327Z,9.44
2018-12-06T03:13:50.316Z,9.40
2018-12-06T03:14:50.304Z,9.44
2018-12-06T03:15:50.296Z,9.38
2018-12-06T03:16:50.282Z,9.35
2018-12-06T03:17:50.275Z,9.40
2018-12-06T03:18:50.272Z,9.41
2018-12-06T03:19:50.258Z,9.41
2018-12-06T03:20:50.253Z,9.35
2018-12-06T03:21:50.243Z,9.32
2018-12-06T03:22:50.234Z,9.34
2018-12-06T03:23:50.225Z,9.31
2018-12-06T03:24:50.212Z,9.31
2018-12-06T03:25:50.203Z,9.31
2018-12-06T03:26:50.203Z,9.32
2018-12-06T03:27:50.192Z,9.30
2018-12-06T03:28:50.177Z,9.35
2018-12-06T03:29:50.168Z,9.40
2018-12-06T03:30:50.160Z,9.31
2018-12-06T03:31:50.170Z,9.27
2018-12-06T03:32:50.148Z,9.30
2018-12-06T03:33:50.144Z,9.42
2018-12-06T03:34:50.128Z,9.38
2018-12-06T03:35:50.120Z,9.38
2018-12-06T03:36:50.109Z,9.38
2018-12-06T03:37:50.167Z,9.37
2018-12-06T03:38:50.090Z,9.40
2018-12-06T03:39:50.079Z,9.49
2018-12-06T03:40:50.075Z,9.48
2018-12-06T03:41:50.067Z,9.44
2018-12-06T03:42:50.058Z,9.42
2018-12-06T03:43:50.047Z,9.41
2018-12-06T03:44:50.042Z,9.45
2018-12-06T03:45:50.045Z,9.40
2018-12-06T03:46:50.026Z,9.45
2018-12-06T03:47:50.018Z,9.52
2018-12-06T03:48:50.000Z,9.48
2018-12-06T03:49:49.992Z,9.55
2018-12-06T03:50:49.985Z,9.55
2018-12-06T03:51:49.975Z,9.49
2018-12-06T03:52:49.971Z,9.49
2018-12-06T03:53:49.960Z,9.53
2018-12-06T03:54:49.954Z,9.49
2018-12-06T03:55:49.946Z,9.58
2018-12-06T03:56:49.930Z,9.50
2018-12-06T03:57:49.922Z,9.53
2018-12-06T03:58:49.921Z,9.50
2018-12-06T03:59:49.916Z,9.59
2018-12-06T04:00:49.896Z,9.65
2018-12-06T04:01:49.889Z,9.60
2018-12-06T04:02:49.878Z,9.63
2018-12-06T04:03:49.868Z,9.58
2018-12-06T04:04:49.866Z,9.55
2018-12-06T04:05:49.858Z,9.68
2018-12-06T04:06:49.848Z,9.67
2018-12-06T04:07:49.839Z,9.71
2018-12-06T04:08:49.825Z,9.70
2018-12-06T04:09:49.826Z,9.73
2018-12-06T04:10:49.809Z,9.65
2018-12-06T04:11:49.799Z,9.68
2018-12-06T04:12:49.795Z,9.73
2018-12-06T04:13:49.788Z,9.71
2018-12-06T04:14:49.780Z,9.70
2018-12-06T04:15:49.765Z,9.74
2018-12-06T04:16:49.765Z,9.75
2018-12-06T04:17:49.754Z,9.70
2018-12-06T04:18:49.752Z,9.73
2018-12-06T04:19:49.755Z,9.71
2018-12-06T04:20:49.722Z,9.75
2018-12-06T04:21:49.714Z,9.80
2018-12-06T04:22:49.705Z,9.74
2018-12-06T04:23:49.697Z,9.78
2018-12-06T04:24:49.693Z,9.74
2018-12-06T04:25:49.685Z,9.74
2018-12-06T04:26:49.677Z,9.74
2018-12-06T04:27:49.667Z,9.77
2018-12-06T04:28:49.655Z,9.78
2018-12-06T04:29:49.646Z,9.75
2018-12-06T04:30:49.642Z,9.77
2018-12-06T04:31:49.644Z,9.71
2018-12-06T04:32:49.621Z,9.78
2018-12-06T04:33:49.616Z,9.77
2018-12-06T04:34:49.603Z,9.92
2018-12-06T04:35:49.595Z,9.89
2018-12-06T04:36:49.595Z,9.92
2018-12-06T04:37:49.583Z,9.93
2018-12-06T04:38:49.575Z,9.77
2018-12-06T04:39:49.568Z,9.77
2018-12-06T04:40:49.556Z,9.85
2018-12-06T04:41:49.554Z,9.81
2018-12-06T04:42:49.541Z,9.88
2018-12-06T04:43:49.528Z,9.91
2018-12-06T04:44:49.525Z,9.91
2018-12-06T04:45:49.518Z,9.92
2018-12-06T04:46:49.503Z,9.91
2018-12-06T04:47:49.496Z,9.96
2018-12-06T04:48:49.492Z,9.92
2018-12-06T04:49:49.487Z,9.89
2018-12-06T04:50:49.495Z,9.77
2018-12-06T04:51:49.465Z,9.86
2018-12-06T04:52:49.453Z,9.88
2018-12-06T04:53:49.444Z,9.86
2018-12-06T04:54:49.436Z,9.86
2018-12-06T04:55:49.428Z,9.95
2018-12-06T04:56:49.431Z,9.92
2018-12-06T04:57:49.423Z,9.89
2018-12-06T04:58:49.406Z,9.91
2018-12-06T04:59:49.398Z,9.89
2018-12-06T05:00:49.386Z,9.95
2018-12-06T05:01:49.377Z,9.89
2018-12-06T05:02:49.372Z,9.80
2018-12-06T05:03:49.367Z,9.92
2018-12-06T05:04:49.350Z,9.89
2018-12-06T05:05:49.342Z,9.89
2018-12-06T05:06:49.333Z,9.88
2018-12-06T05:07:49.325Z,9.96
2018-12-06T05:08:49.326Z,9.92
2018-12-06T05:09:49.313Z,9.93
2018-12-06T05:10:49.304Z,9.93
2018-12-06T05:11:49.296Z,9.92
2018-12-06T05:12:49.282Z,9.98
2018-12-06T05:13:49.274Z,9.99
2018-12-06T05:14:49.265Z,10.01
2018-12-06T05:15:49.257Z,9.98
2018-12-06T05:16:49.252Z,10.09
2018-12-06T05:17:49.244Z,9.99
2018-12-06T05:18:49.231Z,10.09
2018-12-06T05:19:49.222Z,9.99
2018-12-06T05:20:49.218Z,10.07
2018-12-06T05:21:49.210Z,10.09
2018-12-06T05:22:49.202Z,10.10
2018-12-06T05:23:49.194Z,10.16
2018-12-06T05:24:49.180Z,10.07
2018-12-06T05:25:49.195Z,10.13
2018-12-06T05:26:49.164Z,10.13
2018-12-06T05:27:49.155Z,10.09
2018-12-06T05:28:49.151Z,10.07
2018-12-06T05:29:49.144Z,10.06
2018-12-06T05:30:49.133Z,10.13
2018-12-06T05:31:49.125Z,10.10
2018-12-06T05:32:49.113Z,10.07
2018-12-06T05:33:49.103Z,10.04
2018-12-06T05:34:49.099Z,9.99
2018-12-06T05:35:49.090Z,10.06
2018-12-06T05:36:49.079Z,10.09
2018-12-06T05:37:49.071Z,10.07
2018-12-06T05:38:49.062Z,10.04
2018-12-06T05:39:49.053Z,9.99
2018-12-06T05:40:49.049Z,10.09
2018-12-06T05:41:49.042Z,10.11
2018-12-06T05:42:49.032Z,10.10
2018-12-06T05:43:49.028Z,9.98
2018-12-06T05:44:49.012Z,10.01
2018-12-06T05:45:49.002Z,10.02
2018-12-06T05:46:48.995Z,9.98
2018-12-06T05:47:48.986Z,10.01
2018-12-06T05:48:48.981Z,9.99
2018-12-06T05:49:48.973Z,9.95
2018-12-06T05:50:48.961Z,9.95
2018-12-06T05:51:48.952Z,9.99
2018-12-06T05:52:48.948Z,9.88
2018-12-06T05:53:48.940Z,9.98
2018-12-06T05:54:48.933Z,9.92
2018-12-06T05:55:48.926Z,9.98
2018-12-06T05:56:48.911Z,9.98
2018-12-06T05:57:48.903Z,10.01
2018-12-06T05:58:48.896Z,9.95
2018-12-06T05:59:48.886Z,9.91
2018-12-06T06:00:48.886Z,9.91
2018-12-06T06:01:48.875Z,9.92
2018-12-06T06:02:48.865Z,9.92
2018-12-06T06:03:48.858Z,9.91
2018-12-06T06:04:48.845Z,9.92
2018-12-06T06:05:48.840Z,9.91
2018-12-06T06:06:48.832Z,9.93
2018-12-06T06:07:48.825Z,9.89
2018-12-06T06:08:48.811Z,9.92
2018-12-06T06:09:48.804Z,9.91
2018-12-06T06:10:48.794Z,9.93
2018-12-06T06:11:48.785Z,9.91
2018-12-06T06:12:48.783Z,9.92
2018-12-06T06:13:48.776Z,9.96
2018-12-06T06:14:48.765Z,9.93
2018-12-06T06:15:48.759Z,9.93
2018-12-06T06:16:48.745Z,9.96
2018-12-06T06:17:48.740Z,10.02
2018-12-06T06:18:48.727Z,10.09
2018-12-06T06:19:48.720Z,10.09
2018-12-06T06:20:48.716Z,10.09
2018-12-06T06:21:48.706Z,10.10
2018-12-06T06:22:48.695Z,10.09
2018-12-06T06:23:48.684Z,10.13
2018-12-06T06:24:48.681Z,10.10
2018-12-06T06:25:48.673Z,10.17
2018-12-06T06:26:48.666Z,10.11
2018-12-06T06:27:48.657Z,10.17
2018-12-06T06:28:48.645Z,10.14
2018-12-06T06:29:48.635Z,10.16
2018-12-06T06:30:48.626Z,10.16
2018-12-06T06:31:48.618Z,10.20
2018-12-06T06:32:48.614Z,10.17
2018-12-06T06:33:48.605Z,10.22
2018-12-06T06:34:48.598Z,10.22
2018-12-06T06:35:48.588Z,10.20
2018-12-06T06:36:48.575Z,10.22
2018-12-06T06:37:48.568Z,10.17
2018-12-06T06:38:48.563Z,10.22
2018-12-06T06:39:48.556Z,10.25
2018-12-06T06:40:48.543Z,10.24
2018-12-06T06:41:48.535Z,10.24
2018-12-06T06:42:48.528Z,10.24
2018-12-06T06:43:48.519Z,10.24
2018-12-06T06:44:48.514Z,10.24
2018-12-06T06:45:48.507Z,10.29
2018-12-06T06:46:48.499Z,10.25
2018-12-06T06:47:48.490Z,10.22
2018-12-06T06:48:48.477Z,10.24
2018-12-06T06:49:48.469Z,10.32
2018-12-06T06:50:48.461Z,10.26
2018-12-06T06:51:48.453Z,10.20
2018-12-06T06:52:48.449Z,10.22
2018-12-06T06:53:48.449Z,10.25
2018-12-06T06:54:48.428Z,10.32
2018-12-06T06:55:48.420Z,10.26
2018-12-06T06:56:48.417Z,10.18
2018-12-06T06:57:48.409Z,10.24
2018-12-06T06:58:48.402Z,10.24
2018-12-06T06:59:48.394Z,10.31
2018-12-06T07:00:48.383Z,10.25
2018-12-06T07:01:48.375Z,10.24
2018-12-06T07:02:48.363Z,10.22
2018-12-06T07:03:48.355Z,10.35
2018-12-06T07:04:48.352Z,10.35
2018-12-06T07:05:48.343Z,10.36
2018-12-06T07:06:48.336Z,10.31
2018-12-06T07:07:48.329Z,10.29
2018-12-06T07:08:48.315Z,10.42
2018-12-06T07:09:48.307Z,10.35
2018-12-06T07:10:48.303Z,10.35
2018-12-06T07:11:48.295Z,10.44
2018-12-06T07:12:48.287Z,10.36
2018-12-06T07:13:48.275Z,10.39
2018-12-06T07:14:48.265Z,10.44
2018-12-06T07:15:48.259Z,10.47
2018-12-06T07:16:48.255Z,10.49
2018-12-06T07:17:48.247Z,10.46
2018-12-06T07:18:48.244Z,10.47
2018-12-06T07:19:48.232Z,10.47
2018-12-06T07:20:48.221Z,10.49
2018-12-06T07:21:48.211Z,10.51
2018-12-06T07:22:48.202Z,10.54
2018-12-06T07:23:48.194Z,10.57
2018-12-06T07:24:48.191Z,10.54
2018-12-06T07:25:48.182Z,10.52
2018-12-06T07:26:48.286Z,10.55
2018-12-06T07:27:48.161Z,10.60
2018-12-06T07:28:48.159Z,10.65
2018-12-06T07:29:48.594Z,10.68
2018-12-06T07:30:48.142Z,10.68
2018-12-06T07:31:48.140Z,10.66
2018-12-06T07:32:48.122Z,10.76
2018-12-06T07:33:48.118Z,10.69
2018-12-06T07:34:48.105Z,10.70
2018-12-06T07:35:48.098Z,10.70
2018-12-06T07:36:48.096Z,10.69
2018-12-06T07:37:48.087Z,10.73
2018-12-06T07:38:48.079Z,10.81
2018-12-06T07:39:48.072Z,10.76
2018-12-06T07:40:48.058Z,10.83
2018-12-06T07:41:48.052Z,10.84
2018-12-06T07:42:48.052Z,10.88
2018-12-06T07:43:48.043Z,10.83
2018-12-06T07:44:48.027Z,10.93
2018-12-06T07:45:48.021Z,10.81
2018-12-06T07:46:48.011Z,10.83
2018-12-06T07:47:48.003Z,10.86
2018-12-06T07:48:48.005Z,10.83
2018-12-06T07:49:47.992Z,10.90
2018-12-06T07:50:47.984Z,10.90
2018-12-06T07:51:47.978Z,10.91
2018-12-06T07:52:47.964Z,10.91
2018-12-06T07:53:47.956Z,10.93
2018-12-06T07:54:47.952Z,10.98
2018-12-06T07:55:47.941Z,10.94
2018-12-06T07:56:47.939Z,11.05
2018-12-06T07:57:47.934Z,11.02
2018-12-06T07:58:47.919Z,11.01
2018-12-06T07:59:47.911Z,11.02
2018-12-06T08:00:47.908Z,11.05
2018-12-06T08:01:47.900Z,11.02
2018-12-06T08:02:47.891Z,11.08
2018-12-06T08:03:47.886Z,11.06
2018-12-06T08:04:47.872Z,11.08
2018-12-06T08:05:47.865Z,11.11
2018-12-06T08:06:47.856Z,11.11
2018-12-06T08:07:47.849Z,11.13
2018-12-06T08:08:47.847Z,11.08
2018-12-06T08:09:47.839Z,11.08
2018-12-06T08:10:47.829Z,11.11
2018-12-06T08:11:47.822Z,11.06
2018-12-06T08:12:47.840Z,11.13
2018-12-06T08:13:47.803Z,11.13
2018-12-06T08:14:47.804Z,11.09
2018-12-06T08:15:47.792Z,11.11
2018-12-06T08:16:47.780Z,11.16
2018-12-06T08:17:47.773Z,11.08
2018-12-06T08:18:47.764Z,11.08
2018-12-06T08:19:47.757Z,11.12
2018-12-06T08:20:47.755Z,11.16
2018-12-06T08:21:47.749Z,11.20
2018-12-06T08:22:47.740Z,11.17
2018-12-06T08:23:47.733Z,11.20
2018-12-06T08:24:47.722Z,11.19
2018-12-06T08:25:47.713Z,11.23
2018-12-06T08:26:47.704Z,11.19
2018-12-06T08:27:47.697Z,11.26
2018-12-06T08:28:47.694Z,11.27
2018-12-06T08:29:47.687Z,11.27
2018-12-06T08:30:47.675Z,11.30
2018-12-06T08:31:47.667Z,11.23
2018-12-06T08:32:47.666Z,11.24
2018-12-06T08:33:47.657Z,11.27
2018-12-06T08:34:47.649Z,11.30
2018-12-06T08:35:47.645Z,11.36
2018-12-06T08:36:47.631Z,11.35
2018-12-06T08:37:47.623Z,11.31
2018-12-06T08:38:47.617Z,11.31
2018-12-06T08:39:47.608Z,11.31
2018-12-06T08:40:47.608Z,11.28
2018-12-06T08:41:47.598Z,11.27
2018-12-06T08:42:47.590Z,11.30
2018-12-06T08:43:47.596Z,11.44
2018-12-06T08:44:47.570Z,11.31
2018-12-06T08:45:47.564Z,11.33
2018-12-06T08:46:47.560Z,11.39
2018-12-06T08:47:47.553Z,11.33
2018-12-06T08:48:47.565Z,11.38
2018-12-06T08:49:47.537Z,11.33
2018-12-06T08:50:47.527Z,11.33
2018-12-06T08:51:47.521Z,11.35
2018-12-06T08:52:47.517Z,11.28
2018-12-06T08:53:47.510Z,11.30
2018-12-06T08:54:47.501Z,11.28
2018-12-06T08:55:47.496Z,11.24
2018-12-06T08:56:47.483Z,11.27
2018-12-06T08:57:47.475Z,11.26
2018-12-06T08:58:49.197Z,11.30
2018-12-06T08:59:47.460Z,11.33
2018-12-06T09:00:47.457Z,11.24
2018-12-06T09:01:47.450Z,11.27
2018-12-06T09:02:47.437Z,11.26
2018-12-06T09:03:47.430Z,11.27
2018-12-06T09:04:47.427Z,11.31
2018-12-06T09:05:47.421Z,11.27
2018-12-06T09:06:47.416Z,11.35
2018-12-06T09:07:47.406Z,11.49
2018-12-06T09:08:47.398Z,11.49
2018-12-06T09:09:47.390Z,11.49
2018-12-06T09:10:51.470Z,11.53
2018-12-06T09:11:47.374Z,11.62
2018-12-06T09:12:47.369Z,11.64
2018-12-06T09:13:47.364Z,11.60
2018-12-06T09:14:47.354Z,11.66
2018-12-06T09:15:47.348Z,11.74
2018-12-06T09:16:47.345Z,11.78
2018-12-06T09:17:47.330Z,11.85
2018-12-06T09:18:47.326Z,11.85
2018-12-06T09:19:47.318Z,11.84
2018-12-06T09:20:47.306Z,11.88
2018-12-06T09:21:47.299Z,11.88
2018-12-06T09:22:47.293Z,11.94
2018-12-06T09:23:47.284Z,11.98
2018-12-06T09:24:47.282Z,12.03
2018-12-06T09:25:47.275Z,12.03
2018-12-06T09:26:47.267Z,12.03
2018-12-06T09:27:47.260Z,12.12
2018-12-06T09:28:47.250Z,12.12
2018-12-06T09:29:47.242Z,12.11
2018-12-06T09:30:47.239Z,12.08
2018-12-06T09:31:47.228Z,12.13
2018-12-06T09:32:47.225Z,12.19
2018-12-06T09:33:47.219Z,12.21
2018-12-06T09:34:47.207Z,12.18
2018-12-06T09:35:47.200Z,12.26
2018-12-06T09:36:47.199Z,12.31
2018-12-06T09:37:47.192Z,12.31
2018-12-06T09:38:47.183Z,12.37
2018-12-06T09:39:47.177Z,12.44
2018-12-06T09:40:47.166Z,12.46
2018-12-06T09:41:47.159Z,12.55
2018-12-06T09:42:47.152Z,12.62
2018-12-06T09:43:47.146Z,12.51
2018-12-06T09:44:47.145Z,12.59
2018-12-06T09:45:47.138Z,12.59
2018-12-06T09:46:47.132Z,12.59
2018-12-06T09:47:47.125Z,12.62
2018-12-06T09:48:47.115Z,12.58
2018-12-06T09:49:47.108Z,12.56
2018-12-06T09:50:47.107Z,12.63
2018-12-06T09:51:47.099Z,12.71
2018-12-06T09:52:47.089Z,12.70
2018-12-06T09:53:47.082Z,12.74
2018-12-06T09:54:47.077Z,12.77
2018-12-06T09:55:47.069Z,12.77
2018-12-06T09:56:47.069Z,12.80
2018-12-06T09:57:47.062Z,12.80
2018-12-06T09:58:47.055Z,12.63
2018-12-06T09:59:47.098Z,12.63
2018-12-06T10:00:47.040Z,12.56
2018-12-06T10:01:47.033Z,12.58
2018-12-06T10:02:47.026Z,12.58
2018-12-06T10:03:47.020Z,12.66
2018-12-06T10:04:47.020Z,12.67
2018-12-06T10:05:47.014Z,12.63
2018-12-06T10:06:47.002Z,12.73
2018-12-06T10:07:47.000Z,12.56
2018-12-06T10:08:47.070Z,12.71
2018-12-06T10:09:46.989Z,12.70
2018-12-06T10:10:46.983Z,12.76
2018-12-06T10:11:46.976Z,12.62
2018-12-06T10:12:46.965Z,12.67
2018-12-06T10:13:47.016Z,12.69
2018-12-06T10:14:46.955Z,12.76
2018-12-06T10:15:46.947Z,12.69
2018-12-06T10:16:46.947Z,12.73
2018-12-06T10:17:46.941Z,12.74
2018-12-06T10:18:46.933Z,12.87
2018-12-06T10:19:46.928Z,12.91
2018-12-06T10:20:46.916Z,12.96
2018-12-06T10:21:46.911Z,13.04
2018-12-06T10:22:46.908Z,13.14
2018-12-06T10:23:46.902Z,13.19
2018-12-06T10:24:46.892Z,13.27
2018-12-06T10:25:46.887Z,13.38
2018-12-06T10:26:46.881Z,13.41
2018-12-06T10:27:46.875Z,13.44
2018-12-06T10:28:46.873Z,13.57
2018-12-06T10:29:46.869Z,13.55
2018-12-06T10:30:46.861Z,13.63
2018-12-06T10:31:46.857Z,13.73
2018-12-06T10:32:46.845Z,13.76
2018-12-06T10:33:46.839Z,13.80
2018-12-06T10:34:53.249Z,13.88
2018-12-06T10:35:46.827Z,13.80
2018-12-06T10:36:46.827Z,14.01
2018-12-06T10:37:46.821Z,14.02
2018-12-06T10:38:46.811Z,14.01
2018-12-06T10:39:46.805Z,13.96
2018-12-06T10:40:46.804Z,14.06
2018-12-06T10:41:46.800Z,14.09
2018-12-06T10:42:46.795Z,14.12
2018-12-06T10:43:46.789Z,14.09
2018-12-06T10:44:46.779Z,14.20
2018-12-06T10:45:46.773Z,14.35
2018-12-06T10:46:46.767Z,14.31
2018-12-06T10:47:46.762Z,14.46
2018-12-06T10:48:46.774Z,14.44
2018-12-06T10:49:46.760Z,14.54
2018-12-06T10:50:46.751Z,14.54
2018-12-06T10:51:46.748Z,14.49
2018-12-06T10:52:46.738Z,14.53
2018-12-06T10:53:46.735Z,14.56
2018-12-06T10:54:46.731Z,14.54
2018-12-06T10:55:46.728Z,14.57
2018-12-06T10:56:46.717Z,14.61
2018-12-06T10:57:46.716Z,14.67
2018-12-06T10:58:46.709Z,14.72
2018-12-06T10:59:46.703Z,14.74
2018-12-06T11:00:46.704Z,14.60
2018-12-06T11:01:46.699Z,14.63
2018-12-06T11:02:46.693Z,14.56
2018-12-06T11:03:46.689Z,14.54
2018-12-06T11:04:46.680Z,14.59
2018-12-06T11:05:46.674Z,14.49
2018-12-06T11:06:46.669Z,14.42
2018-12-06T11:07:46.663Z,14.36
2018-12-06T11:08:46.663Z,14.36
2018-12-06T11:09:46.659Z,14.38
2018-12-06T11:10:46.654Z,14.31
2018-12-06T11:11:46.646Z,14.39
2018-12-06T11:12:46.644Z,14.46
2018-12-06T11:13:46.640Z,14.48
2018-12-06T11:14:46.636Z,14.35
2018-12-06T11:15:46.632Z,14.30
2018-12-06T11:16:46.622Z,14.31
2018-12-06T11:17:46.616Z,14.29
2018-12-06T11:18:46.619Z,14.23
2018-12-06T11:19:46.607Z,14.20
2018-12-06T11:20:46.609Z,14.23
2018-12-06T11:21:46.600Z,14.20
2018-12-06T11:22:46.596Z,14.19
2018-12-06T11:23:47.697Z,14.05
2018-12-06T11:24:46.581Z,14.17
2018-12-06T12:12:55.586Z,13.81
2018-12-06T12:13:55.567Z,13.91
2018-12-06T12:14:55.554Z,13.91
2018-12-06T12:15:55.544Z,13.83
2018-12-06T12:16:55.529Z,13.88
2018-12-06T12:17:55.522Z,13.91
2018-12-06T12:18:55.518Z,13.88
2018-12-06T12:19:55.496Z,13.80
2018-12-06T12:20:55.495Z,13.88
2018-12-06T12:21:55.481Z,13.93
2018-12-06T12:22:55.472Z,13.96
2018-12-06T12:23:55.464Z,13.98
2018-12-06T12:24:55.454Z,14.02
2018-12-06T12:25:55.443Z,14.01
2018-12-06T12:26:55.434Z,14.02
2018-12-06T12:27:55.427Z,14.02
2018-12-06T12:28:55.419Z,13.99
2018-12-06T12:29:55.416Z,13.98
2018-12-06T12:30:55.410Z,14.01
2018-12-06T12:31:55.404Z,13.96
2018-12-06T12:32:55.396Z,14.09
2018-12-06T12:33:55.384Z,13.94
2018-12-06T12:34:55.377Z,13.99
2018-12-06T12:35:55.377Z,13.99
2018-12-06T12:36:55.369Z,14.08
2018-12-06T12:37:55.360Z,14.11
2018-12-06T12:38:55.357Z,14.08
2018-12-06T12:39:55.357Z,14.08
2018-12-06T12:40:55.344Z,14.13
2018-12-06T12:41:55.340Z,14.13
2018-12-06T12:42:55.336Z,14.26
2018-12-06T12:43:55.335Z,14.31
2018-12-06T12:44:55.323Z,14.30
2018-12-06T12:45:55.313Z,14.38
2018-12-06T12:46:55.309Z,14.41
2018-12-06T12:47:55.303Z,14.48
2018-12-06T12:48:55.298Z,14.49
2018-12-06T12:49:55.297Z,14.52
2018-12-06T12:50:55.293Z,14.52
2018-12-06T12:51:55.282Z,14.57
2018-12-06T12:52:55.280Z,14.57
2018-12-06T12:53:55.277Z,14.56
2018-12-06T12:54:55.273Z,14.54
2018-12-06T12:55:55.268Z,14.64
2018-12-06T12:56:55.261Z,14.53
2018-12-06T12:57:55.252Z,14.60
2018-12-06T12:58:55.248Z,14.57
2018-12-06T12:59:55.244Z,14.59
2018-12-06T13:00:55.238Z,14.59
2018-12-06T13:01:55.238Z,14.59
2018-12-06T13:02:55.234Z,14.59
2018-12-06T13:03:55.232Z,14.52
2018-12-06T13:04:55.225Z,14.60
2018-12-06T13:05:55.222Z,14.53
2018-12-06T13:06:55.211Z,14.56
2018-12-06T13:07:55.213Z,14.54
2018-12-06T13:08:55.208Z,14.53
2018-12-06T13:09:55.197Z,14.59
2018-12-06T13:10:55.195Z,14.54
2018-12-06T13:11:55.189Z,14.52
2018-12-06T13:12:55.184Z,14.59
2018-12-06T13:13:55.183Z,14.56
2018-12-06T13:14:55.180Z,14.49
2018-12-06T13:15:55.177Z,14.56
2018-12-06T13:16:55.172Z,14.56
2018-12-06T13:17:55.161Z,14.57
2018-12-06T13:18:55.160Z,14.54
2018-12-06T13:19:55.153Z,14.56
2018-12-06T13:20:55.148Z,14.56
2018-12-06T13:21:55.148Z,14.52
2018-12-06T13:22:55.145Z,14.56
2018-12-06T13:23:55.135Z,14.54
2018-12-06T13:24:55.141Z,14.53
2018-12-06T13:25:55.133Z,14.56
2018-12-06T13:26:55.128Z,14.53
2018-12-06T13:27:55.123Z,14.46
2018-12-06T13:28:55.117Z,14.52
2018-12-06T13:29:55.167Z,14.45
2018-12-06T13:30:55.104Z,14.44
2018-12-06T13:31:55.104Z,14.46
2018-12-06T13:32:55.095Z,14.39
2018-12-06T13:33:55.101Z,14.41
2018-12-06T13:34:55.092Z,14.42
2018-12-06T13:35:55.087Z,14.38
2018-12-06T13:36:55.081Z,14.38
2018-12-06T13:37:55.075Z,14.45
2018-12-06T13:38:55.068Z,14.36
2018-12-06T13:39:55.068Z,14.45
2018-12-06T13:40:55.064Z,14.35
2018-12-06T13:41:55.055Z,14.36
2018-12-06T13:42:55.055Z,14.45
2018-12-06T13:43:55.049Z,14.42
2018-12-06T13:44:55.048Z,14.42
2018-12-06T13:45:55.054Z,14.39
2018-12-06T13:46:55.041Z,14.36
2018-12-06T13:47:55.034Z,14.36
2018-12-06T13:48:55.028Z,14.36
2018-12-06T13:49:55.019Z,14.41
2018-12-06T13:50:55.014Z,14.36